createdAt,value
2017-03-14T00:03:32.670Z,966.53
2017-03-14T00:04:26.312Z,966.62
2017-03-14T00:16:20.434Z,966.68
2017-03-14T00:22:28.583Z,966.61
2017-03-14T00:24:24.298Z,966.69
2017-03-14T00:25:19.947Z,966.62
2017-03-14T00:27:20.125Z,966.61
2017-03-14T00:28:24.365Z,966.63
2017-03-14T00:30:25.829Z,966.59
2017-03-14T00:31:19.286Z,966.56
2017-03-14T00:32:20.714Z,966.55
2017-03-14T00:33:33.424Z,966.59
2017-03-14T00:34:32.111Z,966.62
2017-03-14T00:35:27.760Z,966.67
2017-03-14T00:36:18.312Z,966.62
2017-03-14T00:37:26.754Z,966.65
2017-03-14T00:38:26.783Z,966.66
2017-03-14T00:39:19.134Z,966.68
2017-03-14T00:40:32.341Z,966.68
2017-03-14T00:41:28.066Z,966.61
2017-03-14T00:42:26.741Z,966.67
2017-03-14T00:43:27.655Z,966.68
2017-03-14T00:44:33.201Z,966.68
2017-03-14T00:45:29.301Z,966.70
2017-03-14T00:46:32.900Z,966.69
2017-03-14T00:47:32.454Z,966.71
2017-03-14T00:48:26.672Z,966.69
2017-03-14T00:49:26.150Z,966.72
2017-03-14T00:50:27.129Z,966.75
2017-03-14T00:51:27.645Z,966.77
2017-03-14T00:52:26.426Z,966.77
2017-03-14T00:53:26.446Z,966.77
2017-03-14T00:54:26.482Z,966.76
2017-03-14T00:55:25.931Z,966.79
2017-03-14T00:56:26.731Z,966.76
2017-03-14T00:57:18.386Z,966.78
2017-03-14T00:58:27.745Z,966.74
2017-03-14T00:59:26.992Z,966.74
2017-03-14T01:00:26.674Z,966.74
2017-03-14T01:01:26.413Z,966.72
2017-03-14T01:02:31.897Z,966.75
2017-03-14T01:03:31.651Z,966.78
2017-03-14T01:04:26.402Z,966.75
2017-03-14T01:05:26.547Z,966.72
2017-03-14T01:06:26.914Z,966.70
2017-03-14T01:07:27.004Z,966.70
2017-03-14T01:08:27.110Z,966.65
2017-03-14T01:09:27.220Z,966.65
2017-03-14T01:10:20.993Z,966.66
2017-03-14T01:11:28.127Z,966.66
2017-03-14T01:12:26.421Z,966.65
2017-03-14T01:13:26.964Z,966.69
2017-03-14T01:14:19.313Z,966.71
2017-03-14T01:15:19.696Z,966.72
2017-03-14T01:16:26.305Z,966.71
2017-03-14T01:17:26.501Z,966.74
2017-03-14T01:20:28.232Z,966.77
2017-03-14T01:21:38.607Z,966.76
2017-03-14T01:22:28.050Z,966.76
2017-03-14T01:23:32.335Z,966.76
2017-03-14T01:25:28.298Z,966.68
2017-03-14T01:27:21.568Z,966.71
2017-03-14T01:28:35.203Z,966.73
2017-03-14T01:29:17.334Z,966.72
2017-03-14T01:32:19.057Z,966.68
2017-03-14T01:40:15.885Z,966.81
2017-03-14T01:41:28.306Z,966.79
2017-03-14T01:42:24.928Z,966.83
2017-03-14T01:44:31.567Z,966.82
2017-03-14T01:45:17.482Z,966.82
2017-03-14T01:47:21.155Z,966.81
2017-03-14T01:52:19.416Z,966.83
2017-03-14T01:53:19.803Z,966.81
2017-03-14T01:57:35.106Z,966.74
2017-03-14T02:00:20.685Z,966.72
2017-03-14T02:06:19.540Z,966.74
2017-03-14T02:12:43.987Z,966.77
2017-03-14T02:14:33.259Z,966.76
2017-03-14T02:15:27.139Z,966.81
2017-03-14T02:16:18.486Z,966.77
2017-03-14T02:17:26.712Z,966.78
2017-03-14T02:18:26.309Z,966.76
2017-03-14T02:23:24.801Z,966.63
2017-03-14T02:24:19.514Z,966.66
2017-03-14T02:25:21.868Z,966.69
2017-03-14T02:27:37.945Z,966.75
2017-03-14T02:29:18.176Z,966.74
2017-03-14T02:30:28.656Z,966.76
2017-03-14T02:31:27.062Z,966.78
2017-03-14T02:32:27.130Z,966.79
2017-03-14T02:36:32.080Z,966.82
2017-03-14T02:38:18.481Z,966.84
2017-03-14T02:39:28.393Z,966.89
2017-03-14T02:40:27.298Z,966.90
2017-03-14T02:41:26.506Z,966.94
2017-03-14T02:42:28.946Z,966.99
2017-03-14T02:45:27.747Z,967.01
2017-03-14T02:48:37.696Z,967.00
2017-03-14T02:51:27.987Z,967.01
2017-03-14T02:52:37.616Z,967.03
2017-03-14T02:53:32.002Z,967.02
2017-03-14T02:54:28.133Z,967.08
2017-03-14T02:55:27.289Z,967.07
2017-03-14T02:56:26.512Z,967.08
2017-03-14T02:57:28.225Z,967.06
2017-03-14T02:58:26.877Z,967.07
2017-03-14T02:59:20.174Z,967.10
2017-03-14T03:00:19.747Z,967.12
2017-03-14T03:01:26.423Z,967.06
2017-03-14T03:02:26.531Z,967.14
2017-03-14T03:03:26.788Z,967.22
2017-03-14T03:04:32.004Z,967.18
2017-03-14T03:05:32.495Z,967.28
2017-03-14T03:06:26.635Z,967.23
2017-03-14T03:07:27.430Z,967.23
2017-03-14T03:08:31.434Z,967.25
2017-03-14T03:09:26.435Z,967.26
2017-03-14T03:10:27.856Z,967.35
2017-03-14T03:11:28.049Z,967.35
2017-03-14T03:12:35.998Z,967.32
2017-03-14T03:14:26.855Z,967.27
2017-03-14T03:15:33.433Z,967.27
2017-03-14T03:16:26.559Z,967.28
2017-03-14T03:17:26.727Z,967.26
2017-03-14T03:18:37.574Z,967.19
2017-03-14T03:19:22.647Z,967.27
2017-03-14T03:20:27.726Z,967.25
2017-03-14T03:22:27.537Z,967.28
2017-03-14T03:23:27.111Z,967.27
2017-03-14T03:24:26.491Z,967.29
2017-03-14T03:25:26.566Z,967.33
2017-03-14T03:26:27.308Z,967.32
2017-03-14T03:27:27.557Z,967.33
2017-03-14T03:28:18.335Z,967.34
2017-03-14T03:29:35.178Z,967.31
2017-03-14T03:30:38.615Z,967.33
2017-03-14T03:31:26.476Z,967.33
2017-03-14T03:32:27.573Z,967.35
2017-03-14T03:33:18.494Z,967.33
2017-03-14T03:34:32.443Z,967.36
2017-03-14T03:35:31.761Z,967.41
2017-03-14T03:36:31.828Z,967.41
2017-03-14T03:37:28.256Z,967.44
2017-03-14T03:38:26.324Z,967.45
2017-03-14T03:39:27.213Z,967.45
2017-03-14T03:40:26.939Z,967.39
2017-03-14T03:41:27.151Z,967.46
2017-03-14T03:42:27.700Z,967.44
2017-03-14T03:43:19.065Z,967.41
2017-03-14T03:44:26.454Z,967.41
2017-03-14T03:45:26.941Z,967.46
2017-03-14T03:46:19.163Z,967.45
2017-03-14T03:47:18.199Z,967.40
2017-03-14T03:48:33.001Z,967.50
2017-03-14T03:49:26.737Z,967.47
2017-03-14T03:50:26.900Z,967.49
2017-03-14T03:51:26.772Z,967.44
2017-03-14T03:52:26.893Z,967.48
2017-03-14T03:53:33.890Z,967.40
2017-03-14T03:54:26.614Z,967.47
2017-03-14T03:55:26.586Z,967.47
2017-03-14T03:56:26.231Z,967.48
2017-03-14T03:57:26.471Z,967.51
2017-03-14T03:58:27.562Z,967.46
2017-03-14T03:59:37.930Z,967.50
2017-03-14T04:00:19.584Z,967.52
2017-03-14T04:01:32.349Z,967.53
2017-03-14T04:02:27.846Z,967.51
2017-03-14T04:03:28.277Z,967.52
2017-03-14T04:04:18.565Z,967.52
2017-03-14T04:05:31.705Z,967.58
2017-03-14T04:06:27.834Z,967.60
2017-03-14T04:07:27.803Z,967.67
2017-03-14T04:08:26.594Z,967.64
2017-03-14T04:09:27.168Z,967.62
2017-03-14T04:10:28.213Z,967.68
2017-03-14T04:11:18.192Z,967.70
2017-03-14T04:12:27.110Z,967.70
2017-03-14T04:13:21.180Z,967.73
2017-03-14T04:14:27.174Z,967.74
2017-03-14T04:15:33.471Z,967.80
2017-03-14T04:16:27.701Z,967.83
2017-03-14T04:17:18.572Z,967.88
2017-03-14T04:18:24.006Z,967.85
2017-03-14T04:19:26.100Z,967.78
2017-03-14T04:20:32.103Z,967.86
2017-03-14T04:21:27.671Z,967.80
2017-03-14T04:22:32.073Z,967.80
2017-03-14T04:23:27.243Z,967.80
2017-03-14T04:24:26.349Z,967.84
2017-03-14T04:25:27.331Z,967.87
2017-03-14T04:26:18.415Z,967.89
2017-03-14T04:27:27.981Z,967.85
2017-03-14T04:28:20.110Z,967.86
2017-03-14T04:29:27.190Z,967.88
2017-03-14T04:30:28.074Z,967.91
2017-03-14T04:31:28.101Z,967.87
2017-03-14T04:32:31.178Z,967.90
2017-03-14T04:33:26.543Z,967.92
2017-03-14T04:34:26.522Z,967.90
2017-03-14T04:35:26.286Z,967.91
2017-03-14T04:36:28.130Z,967.95
2017-03-14T04:37:34.462Z,967.95
2017-03-14T04:38:26.542Z,967.95
2017-03-14T04:39:24.143Z,967.99
2017-03-14T04:41:26.908Z,967.97
2017-03-14T04:42:26.932Z,967.97
2017-03-14T04:43:26.614Z,967.95
2017-03-14T04:44:25.147Z,967.93
2017-03-14T04:45:32.680Z,967.98
2017-03-14T04:46:26.545Z,967.95
2017-03-14T04:47:26.438Z,967.96
2017-03-14T04:48:26.677Z,967.94
2017-03-14T04:49:26.494Z,968.00
2017-03-14T04:50:26.611Z,967.99
2017-03-14T04:51:27.653Z,967.99
2017-03-14T04:52:26.465Z,967.99
2017-03-14T04:53:32.683Z,967.99
2017-03-14T04:54:26.117Z,968.06
2017-03-14T04:55:26.339Z,968.08
2017-03-14T04:56:32.133Z,968.04
2017-03-14T04:57:26.643Z,968.02
2017-03-14T04:58:27.232Z,968.04
2017-03-14T04:59:18.295Z,968.03
2017-03-14T05:00:27.703Z,968.09
2017-03-14T05:01:27.842Z,968.06
2017-03-14T05:02:32.683Z,968.05
2017-03-14T05:03:28.165Z,968.07
2017-03-14T05:04:27.899Z,968.13
2017-03-14T05:05:28.026Z,968.18
2017-03-14T05:06:31.988Z,968.16
2017-03-14T05:07:36.740Z,968.10
2017-03-14T05:08:19.577Z,968.13
2017-03-14T05:09:28.804Z,968.13
2017-03-14T05:10:27.824Z,968.11
2017-03-14T05:11:33.346Z,968.14
2017-03-14T05:12:26.433Z,968.14
2017-03-14T05:14:27.031Z,968.17
2017-03-14T05:15:26.419Z,968.21
2017-03-14T05:16:26.523Z,968.24
2017-03-14T05:17:26.717Z,968.20
2017-03-14T05:18:26.872Z,968.21
2017-03-14T05:19:26.573Z,968.22
2017-03-14T05:20:26.770Z,968.23
2017-03-14T05:21:26.784Z,968.26
2017-03-14T05:22:27.190Z,968.32
2017-03-14T05:23:26.636Z,968.30
2017-03-14T05:24:22.336Z,968.25
2017-03-14T05:25:28.205Z,968.27
2017-03-14T05:27:26.658Z,968.22
2017-03-14T05:28:26.516Z,968.21
2017-03-14T05:29:19.927Z,968.14
2017-03-14T05:30:32.699Z,968.19
2017-03-14T05:31:26.314Z,968.16
2017-03-14T05:32:26.822Z,968.19
2017-03-14T05:33:19.314Z,968.24
2017-03-14T05:34:26.549Z,968.28
2017-03-14T05:35:26.342Z,968.26
2017-03-14T05:36:26.342Z,968.26
2017-03-14T05:37:32.127Z,968.24
2017-03-14T05:38:27.220Z,968.32
2017-03-14T05:39:32.075Z,968.37
2017-03-14T05:40:28.224Z,968.32
2017-03-14T05:41:32.411Z,968.35
2017-03-14T05:42:26.488Z,968.38
2017-03-14T05:43:26.843Z,968.44
2017-03-14T05:44:26.977Z,968.42
2017-03-14T05:45:27.050Z,968.46
2017-03-14T05:46:27.121Z,968.43
2017-03-14T05:47:28.244Z,968.47
2017-03-14T05:49:26.403Z,968.47
2017-03-14T05:52:26.547Z,968.47
2017-03-14T05:53:19.604Z,968.48
2017-03-14T05:54:22.582Z,968.50
2017-03-14T05:55:26.746Z,968.49
2017-03-14T05:56:27.309Z,968.54
2017-03-14T05:57:19.355Z,968.50
2017-03-14T05:58:27.477Z,968.53
2017-03-14T05:59:26.892Z,968.51
2017-03-14T06:00:18.295Z,968.55
2017-03-14T06:01:27.607Z,968.55
2017-03-14T06:02:32.671Z,968.50
2017-03-14T06:03:30.725Z,968.56
2017-03-14T06:04:15.390Z,968.49
2017-03-14T06:05:33.111Z,968.51
2017-03-14T06:06:19.617Z,968.51
2017-03-14T06:07:21.763Z,968.51
2017-03-14T06:08:26.406Z,968.49
2017-03-14T06:09:18.660Z,968.52
2017-03-14T06:10:26.719Z,968.48
2017-03-14T06:11:26.580Z,968.50
2017-03-14T06:16:19.681Z,968.48
2017-03-14T06:17:20.312Z,968.49
2017-03-14T06:19:24.993Z,968.52
2017-03-14T06:22:33.705Z,968.57
2017-03-14T06:23:29.020Z,968.54
2017-03-14T06:26:27.383Z,968.52
2017-03-14T06:34:28.336Z,968.63
2017-03-14T06:37:36.147Z,968.65
2017-03-14T06:38:26.244Z,968.62
2017-03-14T06:39:27.002Z,968.59
2017-03-14T06:40:26.978Z,968.61
2017-03-14T06:41:18.092Z,968.61
2017-03-14T06:42:39.955Z,968.58
2017-03-14T06:43:39.266Z,968.61
2017-03-14T06:44:32.394Z,968.61
2017-03-14T06:45:24.293Z,968.69
2017-03-14T06:46:32.224Z,968.63
2017-03-14T06:48:36.303Z,968.59
2017-03-14T06:49:31.135Z,968.60
2017-03-14T06:50:27.055Z,968.53
2017-03-14T06:52:26.755Z,968.56
2017-03-14T06:53:27.060Z,968.60
2017-03-14T06:54:26.717Z,968.59
2017-03-14T06:55:27.545Z,968.63
2017-03-14T06:56:27.182Z,968.62
2017-03-14T06:58:27.670Z,968.59
2017-03-14T06:59:27.820Z,968.63
2017-03-14T07:00:24.596Z,968.60
2017-03-14T07:01:27.652Z,968.62
2017-03-14T07:02:38.317Z,968.63
2017-03-14T07:03:27.178Z,968.66
2017-03-14T07:04:19.777Z,968.68
2017-03-14T07:05:27.880Z,968.63
2017-03-14T07:06:18.411Z,968.63
2017-03-14T07:07:26.418Z,968.58
2017-03-14T07:08:18.397Z,968.61
2017-03-14T07:09:26.967Z,968.59
2017-03-14T07:10:18.389Z,968.58
2017-03-14T07:11:31.482Z,968.56
2017-03-14T07:12:32.309Z,968.56
2017-03-14T07:13:32.391Z,968.57
2017-03-14T07:14:26.757Z,968.55
2017-03-14T07:15:26.747Z,968.54
2017-03-14T07:16:19.311Z,968.59
2017-03-14T07:17:28.049Z,968.57
2017-03-14T07:18:19.357Z,968.62
2017-03-14T07:19:26.667Z,968.61
2017-03-14T07:20:27.160Z,968.61
2017-03-14T07:21:18.365Z,968.65
2017-03-14T07:22:27.284Z,968.67
2017-03-14T07:23:31.950Z,968.74
2017-03-14T07:24:27.064Z,968.73
2017-03-14T07:25:25.864Z,968.72
2017-03-14T07:26:27.787Z,968.72
2017-03-14T07:27:19.395Z,968.77
2017-03-14T07:28:27.015Z,968.84
2017-03-14T07:29:13.794Z,968.78
2017-03-14T07:30:27.833Z,968.86
2017-03-14T07:31:27.949Z,968.87
2017-03-14T07:32:27.108Z,968.89
2017-03-14T07:33:26.637Z,968.89
2017-03-14T07:34:33.403Z,968.95
2017-03-14T07:35:26.415Z,968.97
2017-03-14T07:36:26.449Z,968.99
2017-03-14T07:37:18.527Z,968.96
2017-03-14T07:38:27.998Z,968.98
2017-03-14T07:39:27.518Z,969.01
2017-03-14T07:40:26.670Z,968.99
2017-03-14T07:41:26.890Z,968.96
2017-03-14T07:42:18.325Z,969.00
2017-03-14T07:43:27.103Z,969.06
2017-03-14T07:44:32.149Z,969.00
2017-03-14T07:45:26.780Z,969.00
2017-03-14T07:46:19.706Z,969.03
2017-03-14T07:47:27.066Z,968.99
2017-03-14T07:48:27.217Z,969.00
2017-03-14T07:49:27.005Z,969.01
2017-03-14T07:50:21.311Z,969.05
2017-03-14T07:51:27.866Z,969.12
2017-03-14T07:52:19.458Z,969.04
2017-03-14T07:53:18.539Z,969.11
2017-03-14T07:54:25.882Z,969.11
2017-03-14T07:58:29.605Z,969.06
2017-03-14T08:06:35.960Z,969.19
2017-03-14T08:07:26.925Z,969.18
2017-03-14T08:09:33.857Z,969.22
2017-03-14T08:10:26.008Z,969.20
2017-03-14T08:11:27.282Z,969.20
2017-03-14T08:12:27.836Z,969.24
2017-03-14T08:13:27.137Z,969.21
2017-03-14T08:14:42.590Z,969.21
2017-03-14T08:16:34.103Z,969.24
2017-03-14T08:17:33.327Z,969.24
2017-03-14T08:18:27.980Z,969.19
2017-03-14T08:19:39.170Z,969.25
2017-03-14T08:21:34.127Z,969.27
2017-03-14T08:22:28.867Z,969.28
2017-03-14T08:23:29.168Z,969.27
2017-03-14T08:25:24.543Z,969.19
2017-03-14T08:26:27.688Z,969.18
2017-03-14T08:27:39.355Z,969.15
2017-03-14T08:29:33.505Z,969.16
2017-03-14T08:30:33.082Z,969.18
2017-03-14T08:31:33.825Z,969.18
2017-03-14T08:32:38.595Z,969.17
2017-03-14T08:33:38.598Z,969.17
2017-03-14T08:34:38.601Z,969.17
2017-03-14T08:35:33.712Z,969.13
2017-03-14T08:36:38.588Z,969.12
2017-03-14T08:39:34.976Z,969.12
2017-03-14T08:40:33.581Z,969.08
2017-03-14T08:41:39.369Z,969.10
2017-03-14T08:43:24.152Z,969.07
2017-03-14T08:44:38.379Z,969.05
2017-03-14T08:46:36.767Z,969.02
2017-03-14T08:48:25.115Z,969.04
2017-03-14T08:54:20.523Z,969.02
2017-03-14T08:55:27.635Z,969.05
2017-03-14T08:56:27.265Z,969.00
2017-03-14T08:57:31.178Z,969.05
2017-03-14T08:58:33.318Z,969.05
2017-03-14T08:59:31.817Z,969.07
2017-03-14T09:00:31.930Z,969.12
2017-03-14T09:01:27.099Z,969.14
2017-03-14T09:02:33.298Z,969.10
2017-03-14T09:03:36.748Z,969.13
2017-03-14T09:04:31.811Z,969.13
2017-03-14T09:05:27.129Z,969.14
2017-03-14T09:06:36.594Z,969.10
2017-03-14T09:08:24.964Z,969.09
2017-03-14T09:09:27.126Z,969.11
2017-03-14T09:11:27.057Z,969.10
2017-03-14T09:13:31.186Z,969.07
2017-03-14T09:15:31.641Z,969.10
2017-03-14T09:16:36.716Z,969.14
2017-03-14T09:17:32.535Z,969.16
2017-03-14T09:18:32.195Z,969.17
2017-03-14T09:19:26.498Z,969.12
2017-03-14T09:20:27.846Z,969.17
2017-03-14T09:21:27.615Z,969.17
2017-03-14T09:23:26.934Z,969.14
2017-03-14T09:24:27.100Z,969.13
2017-03-14T09:25:32.201Z,969.17
2017-03-14T09:26:26.975Z,969.13
2017-03-14T09:27:26.934Z,969.16
2017-03-14T09:28:26.888Z,969.18
2017-03-14T09:29:31.980Z,969.15
2017-03-14T09:30:26.779Z,969.17
2017-03-14T09:31:31.119Z,969.22
2017-03-14T09:33:27.231Z,969.16
2017-03-14T09:34:26.327Z,969.15
2017-03-14T09:35:19.713Z,969.15
2017-03-14T09:37:42.912Z,969.11
2017-03-14T09:38:32.030Z,969.10
2017-03-14T09:39:26.909Z,969.11
2017-03-14T09:40:26.451Z,969.13
2017-03-14T09:41:19.511Z,969.10
2017-03-14T09:43:23.547Z,969.06
2017-03-14T09:44:23.676Z,969.04
2017-03-14T09:46:23.630Z,969.05
2017-03-14T09:47:37.112Z,969.06
2017-03-14T09:48:31.613Z,969.02
2017-03-14T09:49:22.653Z,969.03
2017-03-14T09:50:32.879Z,969.05
2017-03-14T09:51:26.911Z,968.99
2017-03-14T09:52:22.929Z,969.03
2017-03-14T09:53:27.002Z,969.00
2017-03-14T09:54:23.601Z,968.96
2017-03-14T09:55:34.047Z,968.98
2017-03-14T09:56:37.758Z,969.02
2017-03-14T09:57:38.917Z,969.04
2017-03-14T09:58:26.078Z,969.08
2017-03-14T09:59:26.662Z,969.03
2017-03-14T10:00:26.369Z,969.00
2017-03-14T10:01:31.472Z,969.05
2017-03-14T10:03:26.570Z,969.03
2017-03-14T10:04:20.433Z,969.02
2017-03-14T10:06:28.069Z,968.94
2017-03-14T10:09:26.958Z,968.85
2017-03-14T10:10:19.770Z,968.83
2017-03-14T10:11:26.502Z,968.79
2017-03-14T10:12:26.963Z,968.76
2017-03-14T10:13:26.369Z,968.76
2017-03-14T10:14:26.800Z,968.76
2017-03-14T10:21:17.791Z,968.68
2017-03-14T10:23:31.563Z,968.66
2017-03-14T10:24:20.551Z,968.69
2017-03-14T10:25:26.625Z,968.68
2017-03-14T10:26:20.302Z,968.69
2017-03-14T10:27:27.992Z,968.65
2017-03-14T10:28:32.420Z,968.62
2017-03-14T10:29:26.476Z,968.60
2017-03-14T10:30:26.318Z,968.63
2017-03-14T10:31:26.373Z,968.62
2017-03-14T10:33:32.418Z,968.62
2017-03-14T10:35:27.334Z,968.62
2017-03-14T10:36:26.367Z,968.55
2017-03-14T10:38:27.726Z,968.58
2017-03-14T10:39:27.783Z,968.57
2017-03-14T10:41:26.722Z,968.54
2017-03-14T10:42:26.853Z,968.52
2017-03-14T10:43:31.955Z,968.54
2017-03-14T10:44:27.172Z,968.55
2017-03-14T10:46:33.509Z,968.50
2017-03-14T10:47:26.374Z,968.53
2017-03-14T10:48:24.138Z,968.47
2017-03-14T10:49:33.467Z,968.43
2017-03-14T10:50:19.259Z,968.37
2017-03-14T10:52:27.783Z,968.45
2017-03-14T10:53:31.584Z,968.40
2017-03-14T10:54:26.802Z,968.46
2017-03-14T10:55:31.618Z,968.46
2017-03-14T10:56:26.724Z,968.41
2017-03-14T10:57:17.851Z,968.45
2017-03-14T10:59:27.279Z,968.44
2017-03-14T11:00:27.255Z,968.41
2017-03-14T11:01:20.082Z,968.42
2017-03-14T11:02:28.050Z,968.39
2017-03-14T11:03:28.221Z,968.40
2017-03-14T11:04:26.734Z,968.35
2017-03-14T11:05:19.341Z,968.33
2017-03-14T11:06:26.822Z,968.35
2017-03-14T11:08:28.745Z,968.31
2017-03-14T11:09:31.824Z,968.31
2017-03-14T11:10:26.884Z,968.26
2017-03-14T11:11:18.690Z,968.28
2017-03-14T11:12:33.871Z,968.27
2017-03-14T11:13:26.920Z,968.26
2017-03-14T11:14:32.925Z,968.24
2017-03-14T11:16:27.885Z,968.20
2017-03-14T11:19:26.698Z,968.18
2017-03-14T11:20:37.530Z,968.11
2017-03-14T11:21:33.255Z,968.13
2017-03-14T11:22:31.746Z,968.14
2017-03-14T11:23:18.798Z,968.18
2017-03-14T11:24:26.896Z,968.17
2017-03-14T11:25:27.971Z,968.18
2017-03-14T11:26:32.329Z,968.15
2017-03-14T11:27:23.052Z,968.11
2017-03-14T11:28:32.663Z,968.10
2017-03-14T11:30:27.562Z,968.08
2017-03-14T11:31:32.080Z,968.06
2017-03-14T11:33:27.165Z,968.06
2017-03-14T11:34:23.080Z,968.06
2017-03-14T11:35:27.913Z,968.05
2017-03-14T11:36:18.228Z,968.05
2017-03-14T11:38:32.242Z,968.05
2017-03-14T11:39:37.999Z,967.98
2017-03-14T11:40:26.572Z,968.01
2017-03-14T11:42:32.155Z,967.96
2017-03-14T11:43:32.403Z,967.99
2017-03-14T11:44:26.457Z,967.98
2017-03-14T11:45:26.765Z,967.97
2017-03-14T11:46:27.637Z,968.00
2017-03-14T11:47:27.698Z,967.90
2017-03-14T11:48:27.919Z,967.93
2017-03-14T11:51:28.692Z,967.85
2017-03-14T11:52:31.799Z,967.81
2017-03-14T11:54:26.437Z,967.87
2017-03-14T11:55:33.732Z,967.90
2017-03-14T11:56:27.242Z,967.93
2017-03-14T11:57:28.967Z,967.91
2017-03-14T11:58:26.694Z,967.95
2017-03-14T11:59:28.864Z,967.95
2017-03-14T12:00:26.716Z,967.92
2017-03-14T12:01:32.263Z,967.97
2017-03-14T12:02:19.271Z,967.98
2017-03-14T12:03:32.647Z,967.93
2017-03-14T12:04:31.929Z,967.90
2017-03-14T12:05:27.138Z,967.87
2017-03-14T12:07:26.900Z,967.88
2017-03-14T12:08:32.027Z,967.90
2017-03-14T12:09:34.482Z,967.94
2017-03-14T12:10:32.742Z,967.92
2017-03-14T12:11:26.731Z,967.97
2017-03-14T12:12:12.155Z,968.00
2017-03-14T12:13:27.923Z,968.01
2017-03-14T12:14:16.339Z,967.97
2017-03-14T12:16:26.391Z,967.94
2017-03-14T12:17:26.466Z,967.94
2017-03-14T12:19:31.580Z,967.95
2017-03-14T12:20:18.171Z,967.90
2017-03-14T12:21:33.445Z,967.93
2017-03-14T12:22:27.298Z,967.91
2017-03-14T12:24:26.730Z,967.93
2017-03-14T12:25:34.152Z,967.96
2017-03-14T12:26:26.916Z,967.92
2017-03-14T12:27:26.892Z,967.95
2017-03-14T12:28:23.997Z,967.98
2017-03-14T12:29:33.554Z,968.02
2017-03-14T12:30:26.903Z,967.96
2017-03-14T12:31:26.701Z,967.97
2017-03-14T12:32:26.791Z,967.97
2017-03-14T12:33:19.501Z,967.96
2017-03-14T12:34:26.795Z,967.94
2017-03-14T12:35:27.882Z,967.93
2017-03-14T12:36:18.376Z,967.96
2017-03-14T12:37:27.195Z,967.95
2017-03-14T12:38:27.745Z,967.92
2017-03-14T12:39:32.100Z,967.93
2017-03-14T12:40:27.121Z,967.98
2017-03-14T12:41:32.563Z,967.98
2017-03-14T12:42:26.954Z,967.95
2017-03-14T12:43:21.500Z,967.96
2017-03-14T12:44:23.323Z,967.97
2017-03-14T12:45:32.221Z,967.92
2017-03-14T12:47:32.591Z,967.92
2017-03-14T12:48:20.641Z,967.90
2017-03-14T12:51:28.290Z,967.91
2017-03-14T12:52:32.240Z,967.89
2017-03-14T12:54:27.708Z,967.93
2017-03-14T12:55:34.269Z,967.97
2017-03-14T12:57:26.282Z,967.92
2017-03-14T12:58:26.543Z,967.88
2017-03-14T12:59:23.795Z,967.84
2017-03-14T13:00:37.744Z,967.87
2017-03-14T13:01:31.318Z,967.96
2017-03-14T13:04:26.415Z,967.92
2017-03-14T13:05:21.414Z,967.91
2017-03-14T13:06:31.673Z,967.91
2017-03-14T13:07:19.722Z,967.86
2017-03-14T13:09:32.084Z,967.88
2017-03-14T13:10:27.141Z,967.81
2017-03-14T13:11:26.326Z,967.90
2017-03-14T13:12:31.361Z,967.89
2017-03-14T13:13:32.997Z,967.91
2017-03-14T13:14:23.636Z,967.87
2017-03-14T13:15:23.735Z,967.86
2017-03-14T13:16:27.734Z,967.90
2017-03-14T13:17:19.700Z,967.94
2017-03-14T13:18:26.609Z,967.90
2017-03-14T13:20:27.731Z,967.95
2017-03-14T13:21:21.461Z,967.91
2017-03-14T13:22:26.736Z,967.95
2017-03-14T13:25:26.640Z,967.94
2017-03-14T13:26:31.471Z,967.88
2017-03-14T13:27:28.031Z,967.90
2017-03-14T13:28:28.040Z,967.98
2017-03-14T13:29:32.332Z,967.94
2017-03-14T13:30:25.380Z,967.88
2017-03-14T13:31:19.429Z,967.88
2017-03-14T13:34:31.772Z,967.86
2017-03-14T13:38:27.627Z,967.74
2017-03-14T13:39:27.596Z,967.79
2017-03-14T13:41:31.782Z,967.79
2017-03-14T13:42:31.825Z,967.89
2017-03-14T13:43:19.507Z,967.93
2017-03-14T13:44:18.507Z,967.89
2017-03-14T13:45:26.772Z,967.90
2017-03-14T13:46:26.890Z,967.94
2017-03-14T13:47:32.585Z,967.94
2017-03-14T13:48:27.179Z,967.94
2017-03-14T13:49:26.872Z,967.93
2017-03-14T13:50:19.862Z,967.90
2017-03-14T13:51:35.082Z,967.91
2017-03-14T13:55:27.637Z,967.89
2017-03-14T13:56:19.239Z,967.90
2017-03-14T13:57:26.155Z,967.92
2017-03-14T13:58:31.086Z,967.90
2017-03-14T13:59:27.378Z,967.93
2017-03-14T14:01:26.567Z,967.89
2017-03-14T14:02:31.584Z,967.85
2017-03-14T14:03:18.703Z,967.83
2017-03-14T14:04:19.805Z,967.84
2017-03-14T14:05:31.408Z,967.72
2017-03-14T14:10:32.427Z,967.78
2017-03-14T14:11:26.995Z,967.80
2017-03-14T14:15:27.884Z,967.75
2017-03-14T14:17:26.914Z,967.63
2017-03-14T14:18:26.992Z,967.61
2017-03-14T14:19:19.051Z,967.54
2017-03-14T14:20:26.893Z,967.57
2017-03-14T14:22:20.270Z,967.61
2017-03-14T14:23:31.931Z,967.64
2017-03-14T14:24:28.056Z,967.69
2017-03-14T14:25:28.139Z,967.70
2017-03-14T14:26:31.951Z,967.67
2017-03-14T14:28:26.389Z,967.70
2017-03-14T14:29:19.307Z,967.65
2017-03-14T14:30:27.247Z,967.70
2017-03-14T14:31:37.693Z,967.72
2017-03-14T14:32:26.541Z,967.70
2017-03-14T14:33:26.450Z,967.72
2017-03-14T14:34:19.310Z,967.80
2017-03-14T14:36:26.931Z,967.82
2017-03-14T14:37:18.964Z,967.79
2017-03-14T14:38:20.646Z,967.80
2017-03-14T14:39:32.572Z,967.78
2017-03-14T14:40:19.319Z,967.78
2017-03-14T14:41:26.469Z,967.81
2017-03-14T14:42:26.878Z,967.79
2017-03-14T14:43:20.646Z,967.78
2017-03-14T14:44:24.883Z,967.76
2017-03-14T14:45:28.081Z,967.79
2017-03-14T14:46:27.885Z,967.78
2017-03-14T14:48:34.284Z,967.65
2017-03-14T14:49:31.369Z,967.69
2017-03-14T14:50:27.090Z,967.66
2017-03-14T14:51:32.457Z,967.66
2017-03-14T14:52:28.626Z,967.63
2017-03-14T14:53:31.720Z,967.62
2017-03-14T14:54:26.913Z,967.57
2017-03-14T14:55:24.605Z,967.60
2017-03-14T14:56:26.487Z,967.58
2017-03-14T14:57:19.562Z,967.59
2017-03-14T14:59:18.843Z,967.62
2017-03-14T15:00:33.051Z,967.53
2017-03-14T15:01:33.258Z,967.57
2017-03-14T15:05:28.006Z,967.57
2017-03-14T15:06:27.126Z,967.57
2017-03-14T15:07:26.732Z,967.63
2017-03-14T15:08:24.804Z,967.61
2017-03-14T15:09:26.729Z,967.63
2017-03-14T15:10:25.700Z,967.64
2017-03-14T15:11:26.395Z,967.64
2017-03-14T15:12:19.420Z,967.61
2017-03-14T15:13:26.474Z,967.58
2017-03-14T15:15:26.525Z,967.55
2017-03-14T15:16:29.060Z,967.53
2017-03-14T15:17:27.205Z,967.51
2017-03-14T15:18:26.584Z,967.51
2017-03-14T15:19:22.031Z,967.54
2017-03-14T15:20:32.480Z,967.50
2017-03-14T15:23:28.128Z,967.49
2017-03-14T15:24:27.193Z,967.45
2017-03-14T15:25:19.691Z,967.46
2017-03-14T15:26:13.077Z,967.46
2017-03-14T15:27:31.646Z,967.46
2017-03-14T15:29:19.596Z,967.44
2017-03-14T15:30:36.813Z,967.43
2017-03-14T15:32:26.498Z,967.44
2017-03-14T15:33:27.745Z,967.45
2017-03-14T15:34:26.837Z,967.45
2017-03-14T15:35:26.182Z,967.42
2017-03-14T15:36:27.752Z,967.39
2017-03-14T15:39:31.815Z,967.35
2017-03-14T15:40:26.949Z,967.37
2017-03-14T15:41:27.509Z,967.36
2017-03-14T15:42:18.656Z,967.35
2017-03-14T15:43:31.387Z,967.33
2017-03-14T15:45:19.964Z,967.27
2017-03-14T15:46:26.702Z,967.36
2017-03-14T15:47:28.286Z,967.26
2017-03-14T15:49:27.819Z,967.34
2017-03-14T15:52:28.970Z,967.29
2017-03-14T15:53:28.026Z,967.25
2017-03-14T15:54:20.772Z,967.20
2017-03-14T15:55:27.082Z,967.19
2017-03-14T15:58:26.461Z,967.22
2017-03-14T15:59:18.579Z,967.16
2017-03-14T16:00:18.300Z,967.16
2017-03-14T16:01:19.347Z,967.15
2017-03-14T16:02:26.392Z,967.13
2017-03-14T16:03:26.982Z,967.11
2017-03-14T16:06:33.231Z,967.13
2017-03-14T16:08:28.515Z,967.09
2017-03-14T16:09:28.044Z,967.12
2017-03-14T16:11:31.830Z,967.08